Time;durP1;ratioP1;P1;durP2;ratioP2;P2;SDS_P1;SDS_P2;PMS_P1;PMS_P2;Temp;Humidity;BMP_temperature;BMP_pressure;BME280_temperature;BME280_humidity;BME280_pressure;Samples;Min_cycle;Max_cycle;Signal;HPM_P1;HPM_P2
2022/11/02 00:00:32;;;;;;;26.00;16.17;;;10.90;99.90;;;;;;4919817;29;20024;-81
2022/11/02 00:02:58;;;;;;;27.15;16.48;;;10.90;99.90;;;;;;4919581;29;20036;-81
2022/11/02 00:05:24;;;;;;;29.65;17.27;;;10.90;99.90;;;;;;4903009;29;20038;-82
2022/11/02 00:07:54;;;;;;;27.08;16.65;;;10.80;99.90;;;;;;4920202;29;20032;-82
2022/11/02 00:10:21;;;;;;;25.40;16.20;;;10.80;99.90;;;;;;4902837;29;20028;-81
2022/11/02 00:12:48;;;;;;;27.70;16.63;;;10.80;99.90;;;;;;4919680;29;20025;-81
2022/11/02 00:15:14;;;;;;;31.55;15.70;;;10.90;99.90;;;;;;4902707;29;20032;-82
2022/11/02 00:17:49;;;;;;;25.23;15.98;;;10.90;99.90;;;;;;4919372;29;20035;-81
2022/11/02 00:20:18;;;;;;;23.63;15.45;;;10.90;99.90;;;;;;4902641;29;20036;-81
2022/11/02 00:22:47;;;;;;;25.75;16.30;;;10.90;99.90;;;;;;4903027;29;20487;-82
2022/11/02 00:25:14;;;;;;;26.92;15.73;;;10.90;99.90;;;;;;4902690;29;20028;-81
2022/11/02 00:27:41;;;;;;;25.80;16.08;;;10.90;99.90;;;;;;4919133;29;20028;-81
2022/11/02 00:30:07;;;;;;;25.45;15.73;;;11.00;99.90;;;;;;4919147;29;20039;-81
2022/11/02 00:32:33;;;;;;;23.52;14.63;;;11.00;99.90;;;;;;4902453;29;20107;-81
2022/11/02 00:34:59;;;;;;;26.63;14.43;;;11.00;99.90;;;;;;4919427;29;20084;-81
2022/11/02 00:37:25;;;;;;;22.42;14.68;;;11.00;99.90;;;;;;4919184;29;20040;-81
2022/11/02 00:39:50;;;;;;;31.13;15.98;;;11.00;99.90;;;;;;4919401;29;20028;-80
2022/11/02 00:42:16;;;;;;;23.73;14.50;;;11.00;99.90;;;;;;4919211;29;20088;-81
2022/11/02 00:44:41;;;;;;;24.63;14.82;;;11.00;99.90;;;;;;4902250;29;20035;-81
2022/11/02 00:47:07;;;;;;;23.48;13.88;;;11.00;99.90;;;;;;4902152;29;20032;-82
2022/11/02 00:49:33;;;;;;;25.10;15.52;;;11.00;99.90;;;;;;4902984;29;20055;-81
2022/11/02 00:51:58;;;;;;;25.02;15.38;;;11.00;99.90;;;;;;4902267;29;20032;-79
2022/11/02 00:54:24;;;;;;;28.27;16.15;;;11.00;99.90;;;;;;4898645;29;20140;-80
2022/11/02 00:56:50;;;;;;;26.98;14.60;;;11.10;99.90;;;;;;4898850;29;20044;-81
2022/11/02 00:59:15;;;;;;;24.58;13.90;;;11.00;99.90;;;;;;4899951;29;20033;-81
2022/11/02 01:01:46;;;;;;;21.52;14.20;;;11.00;99.90;;;;;;4899140;29;20029;-81
2022/11/02 01:04:13;;;;;;;22.13;13.32;;;11.00;99.90;;;;;;4899162;29;20084;-81
2022/11/02 01:06:39;;;;;;;25.98;14.25;;;11.00;99.90;;;;;;4898643;29;20036;-81
2022/11/02 01:09:04;;;;;;;32.17;13.60;;;10.90;99.90;;;;;;4898839;29;20384;-81
2022/11/02 01:11:30;;;;;;;22.10;12.13;;;10.90;99.90;;;;;;4899319;29;20369;-81
2022/11/02 01:13:56;;;;;;;24.35;13.15;;;10.90;99.90;;;;;;4899796;29;20065;-81
2022/11/02 01:16:22;;;;;;;31.80;13.65;;;10.80;99.90;;;;;;4899530;29;20092;-81
2022/11/02 01:18:54;;;;;;;21.10;12.73;;;10.90;99.90;;;;;;4898669;29;20040;-81
2022/11/02 01:21:20;;;;;;;29.90;14.82;;;10.90;99.90;;;;;;4898547;29;20043;-81
2022/11/02 01:23:46;;;;;;;26.23;14.07;;;10.90;99.90;;;;;;4898605;29;20028;-81
2022/11/02 01:26:12;;;;;;;24.38;14.35;;;10.90;99.90;;;;;;4899638;29;20033;-81
2022/11/02 01:28:38;;;;;;;27.73;14.45;;;10.90;99.90;;;;;;4898421;29;20084;-81
2022/11/02 01:31:05;;;;;;;26.52;15.18;;;10.90;99.90;;;;;;4904328;29;20480;-82
2022/11/02 01:33:31;;;;;;;28.85;15.50;;;10.80;99.90;;;;;;4904970;29;20107;-81
2022/11/02 01:35:57;;;;;;;25.83;15.38;;;10.80;99.90;;;;;;4904159;29;20037;-81
2022/11/02 01:38:24;;;;;;;25.30;14.82;;;10.80;99.90;;;;;;4903190;29;20043;-81
2022/11/02 01:40:49;;;;;;;26.60;14.18;;;10.80;99.90;;;;;;4902701;29;20074;-82
2022/11/02 01:43:30;;;;;;;23.80;13.90;;;10.80;99.90;;;;;;4898485;29;20039;-81
2022/11/02 01:46:05;;;;;;;25.88;14.68;;;10.80;99.90;;;;;;4899048;29;20037;-81
2022/11/02 01:48:42;;;;;;;23.42;15.00;;;10.90;99.90;;;;;;4899106;29;20052;-81
2022/11/02 01:51:18;;;;;;;22.17;15.10;;;10.80;99.90;;;;;;4899197;29;20088;-81
2022/11/02 01:53:45;;;;;;;26.15;14.18;;;10.80;99.90;;;;;;4901255;29;20035;-81
2022/11/02 01:56:17;;;;;;;23.48;13.55;;;10.80;99.90;;;;;;4918122;29;20047;-81
2022/11/02 01:58:46;;;;;;;24.20;14.68;;;10.80;99.90;;;;;;4901175;29;20495;-81
2022/11/02 02:01:11;;;;;;;;;;;10.80;99.90;;;;;;4918089;29;20429;-82
2022/11/02 02:03:38;;;;;;;22.67;13.98;;;10.70;99.90;;;;;;4901106;29;19914;-81
2022/11/02 02:06:14;;;;;;;23.70;13.93;;;10.70;99.90;;;;;;4901021;29;20044;-81
2022/11/02 02:08:47;;;;;;;25.25;13.70;;;10.70;99.90;;;;;;4918222;29;20059;-81
2022/11/02 02:11:33;;;;;;;20.83;12.68;;;10.70;99.90;;;;;;4918031;29;20029;-81
2022/11/02 02:14:08;;;;;;;22.42;13.88;;;10.70;99.90;;;;;;4918069;29;20048;-81
2022/11/02 02:16:59;;;;;;;22.55;13.55;;;10.70;99.90;;;;;;4917962;29;20067;-80
2022/11/02 02:19:38;;;;;;;26.00;15.43;;;10.70;99.90;;;;;;4900935;29;20028;-80
2022/11/02 02:22:44;;;;;;;24.20;13.63;;;10.60;99.90;;;;;;4901323;29;20376;-81
2022/11/02 02:25:36;;;;;;;19.92;12.48;;;10.60;99.90;;;;;;4844233;29;20482;-80
2022/11/02 02:28:18;;;;;;;23.23;14.07;;;10.60;99.90;;;;;;4900935;29;20028;-81
2022/11/02 02:31:04;;;;;;;27.27;12.88;;;10.60;99.90;;;;;;4901212;29;20032;-81
2022/11/02 02:33:51;;;;;;;24.17;13.27;;;10.60;99.90;;;;;;4890666;29;20033;-81
2022/11/02 02:36:42;;;;;;;22.27;12.82;;;10.70;99.90;;;;;;4917648;29;20032;-81
2022/11/02 02:39:30;;;;;;;23.08;13.38;;;10.70;99.90;;;;;;4901110;29;20127;-81
2022/11/02 02:42:14;;;;;;;19.83;12.73;;;10.70;99.90;;;;;;4918010;29;20540;-81
2022/11/02 02:44:45;;;;;;;20.05;12.85;;;10.70;99.90;;;;;;4901221;29;20115;-81
2022/11/02 02:47:20;;;;;;;24.42;13.57;;;10.70;99.90;;;;;;4917870;29;20032;-81
2022/11/02 02:49:58;;;;;;;24.25;13.05;;;10.80;99.90;;;;;;4919842;29;20028;-81
2022/11/02 02:52:26;;;;;;;19.85;12.23;;;10.80;99.90;;;;;;4922100;29;20048;-81
2022/11/02 02:54:57;;;;;;;23.27;12.60;;;10.90;99.90;;;;;;4922509;29;20052;-80
2022/11/02 02:57:26;;;;;;;22.55;12.15;;;10.90;99.90;;;;;;4904623;29;20040;-81
2022/11/02 02:59:53;;;;;;;24.13;12.73;;;10.90;99.90;;;;;;4921336;29;20456;-81
2022/11/02 03:02:23;;;;;;;23.30;13.23;;;10.90;99.90;;;;;;4903928;29;20032;-81
2022/11/02 03:04:49;;;;;;;22.52;13.18;;;10.90;99.90;;;;;;4904196;29;20035;-81
2022/11/02 03:07:23;;;;;;;21.73;12.02;;;11.00;99.90;;;;;;4920892;29;20036;-80
2022/11/02 03:10:03;;;;;;;24.90;12.88;;;11.00;99.90;;;;;;4903993;29;20032;-81
2022/11/02 03:12:46;;;;;;;21.48;12.07;;;11.00;99.90;;;;;;4904280;29;20528;-80
2022/11/02 03:15:51;;;;;;;22.75;13.27;;;11.10;99.90;;;;;;4903772;29;20032;-80
2022/11/02 03:18:25;;;;;;;21.73;12.23;;;11.10;99.90;;;;;;4862319;29;20029;-81
2022/11/02 03:20:56;;;;;;;22.23;12.27;;;11.10;99.90;;;;;;4913233;29;20041;-81
2022/11/02 03:23:31;;;;;;;19.30;10.80;;;11.10;99.90;;;;;;4903440;29;20072;-81
2022/11/02 03:26:08;;;;;;;17.75;11.07;;;11.10;99.90;;;;;;4920239;29;20492;-81
2022/11/02 03:28:43;;;;;;;18.45;11.32;;;11.10;99.90;;;;;;4903603;29;20035;-81
2022/11/02 03:31:35;;;;;;;16.85;11.10;;;11.10;99.90;;;;;;4903672;29;20437;-81
2022/11/02 03:34:30;;;;;;;22.00;10.90;;;11.20;99.90;;;;;;4903188;29;20468;-81
2022/11/02 03:37:18;;;;;;;17.52;10.80;;;11.10;99.90;;;;;;4920322;29;20114;-81
2022/11/02 03:40:05;;;;;;;16.50;10.70;;;11.10;99.90;;;;;;4903531;29;20099;-81
2022/11/02 03:42:34;;;;;;;25.40;10.60;;;11.20;99.90;;;;;;4903438;29;20032;-81
2022/11/02 03:45:06;;;;;;;19.35;10.02;;;11.20;99.90;;;;;;4920036;29;20078;-81
2022/11/02 03:47:34;;;;;;;17.08;10.25;;;11.20;99.90;;;;;;4902903;29;20036;-80
2022/11/02 03:50:01;;;;;;;20.50;11.32;;;11.20;99.90;;;;;;4902998;29;20060;-81
2022/11/02 03:52:30;;;;;;;23.15;13.02;;;11.20;99.90;;;;;;4903223;29;20035;-80
2022/11/02 03:55:11;;;;;;;;;;;11.20;99.90;;;;;;4920301;29;20051;-81
2022/11/02 03:57:47;;;;;;;17.63;10.48;;;11.20;99.90;;;;;;4903088;29;19915;-81
2022/11/02 04:00:16;;;;;;;17.15;10.32;;;11.20;99.90;;;;;;4920033;29;20064;-81
2022/11/02 04:02:47;;;;;;;21.50;11.82;;;11.20;99.90;;;;;;4902454;29;20036;-81
2022/11/02 04:05:13;;;;;;;20.80;12.07;;;11.20;99.90;;;;;;4902986;29;20171;-81
2022/11/02 04:10:26;;;;;;;25.63;12.70;;;11.30;99.90;;;;;;4919853;29;20159;-80
2022/11/02 04:15:36;;;;;;;22.25;12.75;;;11.30;99.90;;;;;;4919664;29;20491;-80
2022/11/02 04:20:50;;;;;;;22.10;11.70;;;11.30;99.90;;;;;;4919535;29;20544;-81
2022/11/02 04:26:01;;;;;;;21.38;11.25;;;11.30;99.90;;;;;;4919240;29;20071;-80
2022/11/02 04:28:27;;;;;;;19.63;11.88;;;11.30;99.90;;;;;;4902538;29;20068;-80
2022/11/02 04:30:53;;;;;;;16.52;10.75;;;11.30;99.90;;;;;;4902720;29;20028;-81
2022/11/02 04:33:33;;;;;;;22.42;10.95;;;11.30;99.90;;;;;;4902426;29;20024;-81
2022/11/02 04:36:00;;;;;;;17.08;11.20;;;11.30;99.90;;;;;;4902715;29;20039;-81
2022/11/02 04:38:41;;;;;;;28.75;12.27;;;11.30;99.90;;;;;;4902477;29;20036;-81
2022/11/02 04:44:01;;;;;;;17.75;10.05;;;11.30;99.90;;;;;;4919086;29;20060;-81
2022/11/02 04:46:29;;;;;;;15.52;10.30;;;11.30;99.90;;;;;;4902263;29;20031;-81
2022/11/02 04:48:55;;;;;;;22.05;11.48;;;11.30;99.90;;;;;;4902086;29;20039;-81
2022/11/02 04:51:22;;;;;;;20.65;11.98;;;11.30;99.90;;;;;;4919150;29;20114;-80
2022/11/02 04:53:50;;;;;;;20.45;10.77;;;11.30;99.90;;;;;;4901979;29;20052;-80
2022/11/02 04:56:15;;;;;;;19.50;10.88;;;11.30;99.90;;;;;;4901907;29;20060;-81
2022/11/02 04:58:41;;;;;;;17.92;11.00;;;11.30;99.90;;;;;;4919005;29;20055;-80
2022/11/02 05:01:18;;;;;;;15.63;10.57;;;11.30;99.90;;;;;;4918555;29;20062;-81
2022/11/02 05:03:47;;;;;;;17.48;10.02;;;11.30;99.90;;;;;;4918751;29;20440;-81
2022/11/02 05:06:13;;;;;;;22.30;11.68;;;11.40;99.90;;;;;;4918727;29;20028;-81
2022/11/02 05:08:39;;;;;;;22.02;10.85;;;11.30;99.90;;;;;;4918031;29;20039;-76
2022/11/02 05:11:05;;;;;;;22.02;11.27;;;11.30;99.90;;;;;;4918770;29;20099;-77
2022/11/02 05:13:31;;;;;;;18.60;12.05;;;11.30;99.90;;;;;;4917669;29;20040;-86
2022/11/02 05:15:58;;;;;;;19.55;10.80;;;11.30;99.90;;;;;;4917398;29;20032;-79
2022/11/02 05:18:24;;;;;;;26.15;11.50;;;11.30;99.90;;;;;;4917990;29;20036;-83
2022/11/02 05:20:51;;;;;;;20.83;10.77;;;11.40;99.90;;;;;;4917170;29;20036;-76
2022/11/02 05:23:18;;;;;;;20.60;11.10;;;11.40;99.90;;;;;;4918131;29;20032;-78
2022/11/02 05:26:02;;;;;;;27.98;11.13;;;11.40;99.90;;;;;;4917806;29;20039;-77
2022/11/02 05:28:29;;;;;;;20.40;10.65;;;11.40;99.90;;;;;;4917051;29;20032;-74
2022/11/02 05:30:59;;;;;;;24.55;11.77;;;11.40;99.90;;;;;;4916766;29;20035;-80
2022/11/02 05:33:26;;;;;;;20.58;12.15;;;11.30;99.90;;;;;;4917255;29;20028;-81
2022/11/02 05:35:54;;;;;;;18.27;10.07;;;11.30;99.90;;;;;;4917867;29;20032;-79
2022/11/02 05:38:19;;;;;;;22.13;11.20;;;11.30;99.90;;;;;;4918557;29;20032;-83
2022/11/02 05:40:51;;;;;;;17.08;10.05;;;11.30;99.90;;;;;;4917413;29;20028;-85
2022/11/02 05:43:17;;;;;;;20.23;10.77;;;11.20;99.90;;;;;;4918573;29;20024;-86
2022/11/02 05:45:42;;;;;;;18.48;10.82;;;11.20;99.90;;;;;;4918556;29;20091;-86
2022/11/02 05:48:08;;;;;;;17.80;11.07;;;11.20;99.90;;;;;;4917564;29;20100;-86
2022/11/02 05:50:34;;;;;;;18.40;10.52;;;11.10;99.90;;;;;;4918554;29;20472;-86
2022/11/02 05:52:59;;;;;;;21.67;10.88;;;11.10;99.90;;;;;;4918322;29;20047;-76
2022/11/02 05:55:25;;;;;;;19.90;9.93;;;11.00;99.90;;;;;;4917142;29;20436;-79
2022/11/02 05:57:52;;;;;;;18.90;10.13;;;10.90;99.90;;;;;;4917279;29;20040;-86
2022/11/02 06:00:19;;;;;;;17.90;10.15;;;10.80;99.90;;;;;;4917995;29;20084;-79
2022/11/02 06:02:45;;;;;;;17.60;9.95;;;10.80;99.90;;;;;;4918187;29;20039;-58
2022/11/02 06:05:10;;;;;;;24.38;10.95;;;10.70;99.90;;;;;;4918643;29;20029;-58
2022/11/02 06:07:36;;;;;;;26.60;13.30;;;10.70;99.90;;;;;;4918616;29;20064;-58
2022/11/02 06:10:02;;;;;;;25.70;11.82;;;10.70;99.90;;;;;;4918352;29;20107;-58
2022/11/02 06:12:27;;;;;;;20.48;10.80;;;10.70;99.90;;;;;;4917950;29;20032;-58
2022/11/02 06:14:53;;;;;;;25.27;11.48;;;10.70;99.90;;;;;;4916499;29;20032;-58
2022/11/02 06:17:19;;;;;;;22.42;12.15;;;10.60;99.90;;;;;;4917128;29;20048;-58
2022/11/02 06:19:44;;;;;;;22.63;11.38;;;10.60;99.90;;;;;;4918146;29;20386;-80
2022/11/02 06:22:10;;;;;;;24.20;12.65;;;10.60;99.90;;;;;;4916528;29;20034;-80
2022/11/02 06:24:36;;;;;;;16.38;10.77;;;10.60;99.90;;;;;;4917886;29;20028;-87
2022/11/02 06:27:01;;;;;;;18.17;11.60;;;10.60;99.90;;;;;;4921517;29;20032;-73
2022/11/02 06:29:27;;;;;;;23.30;11.57;;;10.70;99.90;;;;;;4921121;29;20031;-73
2022/11/02 06:31:53;;;;;;;25.77;11.23;;;10.70;99.90;;;;;;4920222;29;20031;-77
2022/11/02 06:34:18;;;;;;;21.15;12.43;;;10.70;99.90;;;;;;4921241;29;20028;-81
2022/11/02 06:36:44;;;;;;;21.88;11.55;;;10.80;99.90;;;;;;4920819;29;20118;-76
2022/11/02 06:39:09;;;;;;;30.45;12.95;;;10.80;99.90;;;;;;4920965;29;20464;-77
2022/11/02 06:41:35;;;;;;;23.23;12.32;;;10.80;99.90;;;;;;4921172;29;20111;-76
2022/11/02 06:44:01;;;;;;;20.67;10.65;;;11.00;99.90;;;;;;4920962;29;20032;-77
2022/11/02 06:46:26;;;;;;;22.20;11.35;;;11.10;99.90;;;;;;4920684;29;20380;-62
2022/11/02 06:48:52;;;;;;;21.83;11.60;;;11.30;99.90;;;;;;4920710;29;20483;-62
2022/11/02 06:51:18;;;;;;;18.67;10.68;;;11.50;99.90;;;;;;4920728;29;20035;-62
2022/11/02 06:53:43;;;;;;;24.20;11.23;;;11.70;99.90;;;;;;4920497;29;20543;-63
2022/11/02 06:56:11;;;;;;;20.50;10.77;;;11.90;99.90;;;;;;4920277;29;20494;-62
2022/11/02 06:58:36;;;;;;;16.55;9.35;;;12.10;99.90;;;;;;4920173;29;20041;-63
2022/11/02 07:01:06;;;;;;;16.90;8.70;;;12.30;99.90;;;;;;4920907;29;20028;-69
2022/11/02 07:03:32;;;;;;;16.85;8.88;;;12.60;99.90;;;;;;4920383;29;20028;-69
2022/11/02 07:05:58;;;;;;;14.35;8.35;;;12.80;99.90;;;;;;4920347;29;20036;-61
2022/11/02 07:08:24;;;;;;;23.80;9.38;;;13.00;99.90;;;;;;4919493;29;20452;-80
2022/11/02 07:10:50;;;;;;;13.95;7.57;;;13.30;99.90;;;;;;4920736;29;20039;-82
2022/11/02 07:13:16;;;;;;;13.77;7.45;;;13.50;99.90;;;;;;4920951;29;20103;-82
2022/11/02 07:15:41;;;;;;;11.43;6.32;;;13.80;99.90;;;;;;4919696;29;20042;-83
2022/11/02 07:18:07;;;;;;;11.23;6.07;;;14.10;99.90;;;;;;4921083;29;20036;-83
2022/11/02 07:20:34;;;;;;;18.50;6.68;;;14.50;99.90;;;;;;4920856;29;20024;-83
2022/11/02 07:23:01;;;;;;;11.18;6.32;;;14.90;99.90;;;;;;4904021;29;20064;-82
2022/11/02 07:25:32;;;;;;;10.20;6.70;;;15.30;99.90;;;;;;4920695;29;20052;-86
2022/11/02 07:27:59;;;;;;;14.32;6.70;;;15.70;99.90;;;;;;4920668;29;20028;-84
2022/11/02 07:30:27;;;;;;;14.77;6.35;;;16.00;99.90;;;;;;4920486;29;20029;-83
2022/11/02 07:32:52;;;;;;;10.43;6.93;;;16.30;99.90;;;;;;4920960;29;20028;-83
2022/11/02 07:35:18;;;;;;;13.00;6.40;;;16.40;99.90;;;;;;4918899;29;20028;-78
2022/11/02 07:37:53;;;;;;;13.18;6.97;;;16.60;99.90;;;;;;4918986;29;20092;-79
2022/11/02 07:40:18;;;;;;;11.95;7.22;;;16.70;99.90;;;;;;4903956;29;20032;-80
2022/11/02 07:42:45;;;;;;;13.98;7.25;;;16.90;99.90;;;;;;4920381;29;20357;-82
2022/11/02 07:45:11;;;;;;;14.35;7.25;;;17.20;99.90;;;;;;4919680;29;20088;-80
2022/11/02 07:47:44;;;;;;;13.43;6.97;;;17.40;99.90;;;;;;4919213;29;20036;-80
2022/11/02 07:50:11;;;;;;;18.77;6.50;;;17.60;99.90;;;;;;4918832;29;20028;-80
2022/11/02 07:52:46;;;;;;;12.85;6.88;;;17.70;99.90;;;;;;4918739;29;20047;-80
2022/11/02 07:55:13;;;;;;;12.30;6.93;;;17.90;99.90;;;;;;4918731;29;20395;-80
2022/11/02 07:57:39;;;;;;;9.82;6.20;;;18.10;99.90;;;;;;4919835;29;20042;-80
2022/11/02 08:00:05;;;;;;;9.18;5.57;;;18.20;99.90;;;;;;4918655;29;20032;-81
2022/11/02 08:02:31;;;;;;;9.02;5.82;;;18.30;99.90;;;;;;4919906;29;20547;-80
2022/11/02 08:04:57;;;;;;;11.32;5.45;;;18.60;99.90;;;;;;4918753;29;20115;-81
2022/11/02 08:07:22;;;;;;;14.30;5.57;;;18.60;99.90;;;;;;4918707;29;20063;-81
2022/11/02 08:09:48;;;;;;;11.73;4.53;;;18.70;99.90;;;;;;4918099;29;20074;-81
2022/11/02 08:12:13;;;;;;;9.27;4.53;;;18.90;99.90;;;;;;4918660;29;20070;-81
2022/11/02 08:14:39;;;;;;;12.77;4.88;;;19.10;99.90;;;;;;4918817;29;20063;-81
2022/11/02 08:17:05;;;;;;;13.00;4.38;;;19.00;99.90;;;;;;4918519;29;20250;-82
2022/11/02 08:19:30;;;;;;;8.02;3.55;;;19.10;99.90;;;;;;4919772;29;20090;-81
2022/11/02 08:21:57;;;;;;;9.65;4.05;;;19.10;99.90;;;;;;4919744;29;20052;-81
2022/11/02 08:24:23;;;;;;;6.57;3.20;;;19.20;99.90;;;;;;4918364;29;20028;-80
2022/11/02 08:26:48;;;;;;;10.13;3.45;;;19.20;99.90;;;;;;4918419;29;20127;-81
2022/11/02 08:29:14;;;;;;;11.50;3.40;;;19.40;99.90;;;;;;4918943;29;20024;-82
2022/11/02 08:31:39;;;;;;;6.68;3.58;;;19.50;99.90;;;;;;4919612;29;20040;-82
2022/11/02 08:34:05;;;;;;;8.25;3.30;;;19.80;99.90;;;;;;4918469;29;20035;-81
2022/11/02 08:36:33;;;;;;;7.85;2.75;;;20.10;99.90;;;;;;4919116;29;20032;-81
2022/11/02 08:38:59;;;;;;;9.83;3.47;;;20.40;99.90;;;;;;4918033;29;20373;-81
2022/11/02 08:41:24;;;;;;;10.48;3.42;;;20.60;99.90;;;;;;4919252;29;20028;-81
2022/11/02 08:43:50;;;;;;;10.32;2.95;;;20.50;99.90;;;;;;4919994;29;20440;-87
2022/11/02 08:46:16;;;;;;;10.52;3.38;;;20.60;99.90;;;;;;4919259;29;20052;-84
2022/11/02 08:48:41;;;;;;;7.45;3.25;;;20.70;99.90;;;;;;4917630;29;20035;-80
2022/11/02 08:51:07;;;;;;;5.60;2.97;;;20.50;99.90;;;;;;4917942;29;20039;-79
2022/11/02 08:53:33;;;;;;;7.53;2.92;;;20.60;99.90;;;;;;4917210;29;20061;-82
2022/11/02 08:55:59;;;;;;;9.95;3.08;;;20.70;99.90;;;;;;4918560;29;20197;-79
2022/11/02 08:58:25;;;;;;;5.00;2.63;;;20.80;99.60;;;;;;4918766;29;20380;-81
2022/11/02 09:00:54;;;;;;;5.28;2.63;;;21.00;98.80;;;;;;4918467;29;20032;-82
2022/11/02 09:03:22;;;;;;;6.78;2.00;;;21.20;98.20;;;;;;4918466;29;20107;-80
2022/11/02 09:05:48;;;;;;;7.53;2.40;;;21.20;97.90;;;;;;4917171;29;20036;-83
2022/11/02 09:08:15;;;;;;;7.40;2.22;;;21.30;97.50;;;;;;4917176;29;20063;-79
2022/11/02 09:10:42;;;;;;;6.95;2.35;;;21.50;97.20;;;;;;4917162;29;20032;-83
2022/11/02 09:13:11;;;;;;;6.55;2.85;;;21.40;96.90;;;;;;4917266;29;20468;-79
2022/11/02 09:15:37;;;;;;;6.78;2.35;;;21.30;96.80;;;;;;4918347;29;20030;-80
2022/11/02 09:18:04;;;;;;;7.07;2.35;;;21.30;96.80;;;;;;4917151;29;20040;-81
2022/11/02 09:20:29;;;;;;;7.90;2.70;;;21.40;96.50;;;;;;4918490;29;20035;-82
2022/11/02 09:22:55;;;;;;;7.72;2.90;;;21.60;96.30;;;;;;4917083;29;20032;-81
2022/11/02 09:25:21;;;;;;;11.35;2.30;;;21.60;96.00;;;;;;4918160;29;20035;-80
2022/11/02 09:27:54;;;;;;;3.15;2.30;;;22.10;95.70;;;;;;4918543;29;20021;-82
2022/11/02 09:30:21;;;;;;;10.18;3.13;;;22.00;94.50;;;;;;4917234;29;20100;-82
2022/11/02 09:32:58;;;;;;;7.53;2.78;;;21.90;94.90;;;;;;4918404;29;20032;-80
2022/11/02 09:35:25;;;;;;;6.05;2.22;;;21.50;95.20;;;;;;4918391;29;20075;-80
2022/11/02 09:37:51;;;;;;;5.95;1.95;;;21.40;95.30;;;;;;4918233;29;20064;-82
2022/11/02 09:40:24;;;;;;;5.10;2.80;;;21.50;95.60;;;;;;4917860;29;20063;-88
2022/11/02 09:43:00;;;;;;;4.15;2.22;;;21.30;95.40;;;;;;4918557;29;20056;-85
2022/11/02 09:45:26;;;;;;;7.13;2.22;;;21.30;95.40;;;;;;4917622;29;20034;-82
2022/11/02 09:47:58;;;;;;;6.75;2.10;;;21.10;95.40;;;;;;4918614;29;20519;-81
2022/11/02 09:50:52;;;;;;;6.55;1.90;;;20.90;96.00;;;;;;4927627;29;20035;-79
2022/11/02 09:53:27;;;;;;;3.78;1.90;;;20.70;96.60;;;;;;4921566;29;20035;-80
2022/11/02 09:55:57;;;;;;;5.38;2.08;;;21.10;96.70;;;;;;4937648;29;20095;-80
2022/11/02 09:58:45;;;;;;;4.50;2.05;;;21.00;96.00;;;;;;4930435;29;20353;-80
2022/11/02 10:01:39;;;;;;;3.53;2.10;;;20.80;95.80;;;;;;4937838;29;20059;-78
2022/11/02 10:04:31;;;;;;;7.28;2.97;;;20.80;96.00;;;;;;4920454;29;20035;-80
2022/11/02 10:07:25;;;;;;;6.68;2.30;;;20.60;96.30;;;;;;4926118;29;20032;-81
2022/11/02 10:10:03;;;;;;;6.78;2.53;;;20.40;96.90;;;;;;4936523;29;20539;-82
2022/11/02 10:12:57;;;;;;;5.05;2.53;;;20.30;96.70;;;;;;4935788;29;20032;-80
2022/11/02 10:15:35;;;;;;;5.18;2.22;;;20.40;97.00;;;;;;4936701;29;20032;-82
2022/11/02 10:18:02;;;;;;;;;;;20.00;97.10;;;;;;4936624;29;20035;-80
2022/11/02 10:20:47;;;;;;;5.53;2.42;;;20.00;97.70;;;;;;4936855;29;19989;-79
2022/11/02 10:23:30;;;;;;;6.15;2.50;;;20.50;97.10;;;;;;4936877;29;20035;-80
2022/11/02 10:26:01;;;;;;;7.63;2.28;;;20.70;96.40;;;;;;4919955;29;20543;-80
2022/11/02 10:28:35;;;;;;;5.93;2.50;;;20.90;96.10;;;;;;4937722;29;20050;-79
2022/11/02 10:31:04;;;;;;;9.80;2.90;;;21.00;95.50;;;;;;4941173;29;20028;-82
2022/11/02 10:33:32;;;;;;;11.30;3.72;;;21.20;95.50;;;;;;4924749;29;20118;-80
2022/11/02 10:36:07;;;;;;;4.35;2.20;;;21.60;94.20;;;;;;4936432;29;20400;-78
2022/11/02 10:39:06;;;;;;;4.63;2.60;;;21.40;93.90;;;;;;4919389;29;20043;-80
2022/11/02 10:42:02;;;;;;;5.70;2.40;;;21.30;93.90;;;;;;4936601;29;20087;-81
2022/11/02 10:44:36;;;;;;;4.50;2.03;;;21.70;93.20;;;;;;4936797;29;20024;-79
2022/11/02 10:47:23;;;;;;;6.28;2.30;;;21.80;92.90;;;;;;4919301;29;20039;-79
2022/11/02 10:50:03;;;;;;;5.13;2.20;;;21.60;92.60;;;;;;4936485;29;20146;-79
2022/11/02 10:52:38;;;;;;;5.85;2.00;;;21.70;92.40;;;;;;4919259;29;20472;-79
2022/11/02 10:55:07;;;;;;;7.65;2.30;;;22.10;92.00;;;;;;4915905;29;20114;-79
2022/11/02 10:57:37;;;;;;;4.78;1.67;;;21.80;91.50;;;;;;4917271;29;20373;-79
2022/11/02 11:00:34;;;;;;;5.00;2.08;;;21.70;92.40;;;;;;4917140;29;20535;-77
2022/11/02 11:03:07;;;;;;;5.10;1.70;;;22.10;91.80;;;;;;4917363;29;20644;-78
2022/11/02 11:05:36;;;;;;;2.78;1.90;;;22.20;91.40;;;;;;4915856;29;20099;-78
2022/11/02 11:08:04;;;;;;;4.78;2.20;;;22.40;90.40;;;;;;4917236;29;20472;-79
2022/11/02 11:10:36;;;;;;;5.85;2.00;;;22.40;90.30;;;;;;4915367;29;20032;-78
2022/11/02 11:13:03;;;;;;;4.00;2.05;;;22.50;89.20;;;;;;4919007;29;20491;-78
2022/11/02 11:15:32;;;;;;;4.70;2.15;;;22.30;89.20;;;;;;4920218;29;20028;-78
2022/11/02 11:17:58;;;;;;;6.40;2.22;;;22.80;87.80;;;;;;4918662;29;20043;-78
2022/11/02 11:20:27;;;;;;;4.15;1.85;;;23.00;85.30;;;;;;4918740;29;20547;-78
2022/11/02 11:23:14;;;;;;;3.83;1.80;;;22.90;84.50;;;;;;4918942;29;20034;-78
2022/11/02 11:25:40;;;;;;;5.28;1.98;;;22.90;81.30;;;;;;4918797;29;20144;-78
2022/11/02 11:28:21;;;;;;;5.93;1.90;;;22.60;82.40;;;;;;4919014;29;20036;-78
2022/11/02 11:31:26;;;;;;;3.72;1.60;;;22.50;79.50;;;;;;4919046;29;20040;-78
2022/11/02 11:33:56;;;;;;;5.45;1.55;;;22.20;80.30;;;;;;4916555;29;20123;-78
2022/11/02 11:36:29;;;;;;;5.82;1.63;;;22.30;78.70;;;;;;4920036;29;20119;-78
2022/11/02 11:39:01;;;;;;;5.47;1.38;;;22.50;77.70;;;;;;4918716;29;20035;-79
2022/11/02 11:41:29;;;;;;;2.63;1.50;;;22.50;76.90;;;;;;4919702;29;20035;-78
2022/11/02 11:43:55;;;;;;;3.97;1.17;;;22.60;75.60;;;;;;4918450;29;20028;-77
2022/11/02 11:46:22;;;;;;;3.33;1.50;;;22.40;73.10;;;;;;4918814;29;20088;-78
2022/11/02 11:48:58;;;;;;;5.03;1.38;;;22.10;72.70;;;;;;4934952;29;20357;-78
2022/11/02 11:51:29;;;;;;;2.55;1.10;;;21.90;72.00;;;;;;4919777;29;20032;-79
2022/11/02 11:54:28;;;;;;;4.43;1.42;;;21.80;73.10;;;;;;4918272;29;20056;-78
2022/11/02 11:57:26;;;;;;;2.90;1.60;;;22.10;72.30;;;;;;4918363;29;20087;-78
2022/11/02 11:59:57;;;;;;;2.17;1.57;;;22.60;70.50;;;;;;4916325;29;20365;-78
2022/11/02 12:02:29;;;;;;;2.40;1.58;;;22.60;70.80;;;;;;4919592;29;20608;-78
2022/11/02 12:05:14;;;;;;;2.65;1.48;;;22.70;69.70;;;;;;4918830;29;20416;-78
2022/11/02 12:07:49;;;;;;;4.60;1.17;;;22.70;68.30;;;;;;4918216;29;20028;-78
2022/11/02 12:11:00;;;;;;;4.45;1.05;;;22.20;66.90;;;;;;4918388;29;20029;-77
2022/11/02 12:13:53;;;;;;;3.30;1.30;;;22.30;67.10;;;;;;4909262;29;20032;-78
2022/11/02 12:16:46;;;;;;;3.00;1.77;;;22.40;67.50;;;;;;4918430;29;20127;-78
2022/11/02 12:19:53;;;;;;;1.45;0.88;;;22.50;65.70;;;;;;4918141;29;20036;-78
2022/11/02 12:22:31;;;;;;;2.97;1.15;;;22.40;65.70;;;;;;4917632;29;20028;-78
2022/11/02 12:25:15;;;;;;;5.18;1.17;;;22.10;65.30;;;;;;4918907;29;20047;-78
2022/11/02 12:28:02;;;;;;;5.32;1.40;;;21.90;66.20;;;;;;4919212;29;20039;-80
2022/11/02 12:31:03;;;;;;;5.80;1.40;;;21.90;67.10;;;;;;4918984;29;20032;-79
2022/11/02 12:34:04;;;;;;;5.65;1.42;;;22.20;65.10;;;;;;4918911;29;20420;-79
2022/11/02 12:36:42;;;;;;;2.75;1.02;;;22.00;65.70;;;;;;4905865;29;20593;-79
2022/11/02 12:39:11;;;;;;;2.33;1.20;;;21.80;65.50;;;;;;4917718;29;20031;-78
2022/11/02 12:41:37;;;;;;;4.22;1.15;;;21.80;64.80;;;;;;4918850;29;20462;-78
2022/11/02 12:44:16;;;;;;;2.75;0.98;;;21.50;65.20;;;;;;4917520;29;20055;-79
2022/11/02 12:47:02;;;;;;;3.70;1.60;;;21.50;64.20;;;;;;4917478;29;20119;-78
2022/11/02 12:49:40;;;;;;;2.75;1.40;;;21.20;65.20;;;;;;4917507;29;20480;-80
2022/11/02 12:52:16;;;;;;;2.95;1.35;;;21.20;65.40;;;;;;4918643;29;20047;-78
2022/11/02 12:54:54;;;;;;;5.88;1.20;;;21.40;64.90;;;;;;4916929;29;20411;-78
2022/11/02 12:57:23;;;;;;;5.65;1.40;;;21.50;64.30;;;;;;4918008;29;20036;-78
2022/11/02 13:00:04;;;;;;;3.03;0.90;;;21.40;64.50;;;;;;4917477;29;20032;-80
2022/11/02 13:02:40;;;;;;;3.22;1.23;;;21.40;63.70;;;;;;4917636;29;20391;-81
2022/11/02 13:05:17;;;;;;;3.00;1.00;;;21.20;63.30;;;;;;4917182;29;20500;-80
2022/11/02 13:08:15;;;;;;;6.05;2.03;;;21.30;63.20;;;;;;4918378;29;20032;-80
2022/11/02 13:10:52;;;;;;;2.92;0.90;;;21.40;63.40;;;;;;4914781;29;20051;-79
2022/11/02 13:13:28;;;;;;;4.45;1.00;;;20.60;63.90;;;;;;4918481;29;20028;-81